createdAt,value
2022-10-19T00:01:13.544Z,3.35
2022-10-19T00:03:41.129Z,12.90
2022-10-19T00:06:28.945Z,8.05
2022-10-19T00:08:58.521Z,6.53
2022-10-19T00:11:26.226Z,12.30
2022-10-19T00:13:54.843Z,5.80
2022-10-19T00:16:23.131Z,13.48
2022-10-19T00:18:49.891Z,8.10
2022-10-19T00:21:18.838Z,6.22
2022-10-19T00:23:45.934Z,10.18
2022-10-19T00:26:13.956Z,8.05
2022-10-19T00:28:41.306Z,12.38
2022-10-19T00:31:14.153Z,12.43
2022-10-19T00:33:49.559Z,9.55
2022-10-19T00:36:16.375Z,8.45
2022-10-19T00:38:43.395Z,7.40
2022-10-19T00:41:10.430Z,7.05
2022-10-19T00:43:54.660Z,4.90
2022-10-19T00:46:22.173Z,6.45
2022-10-19T00:51:39.535Z,8.57
2022-10-19T00:54:07.741Z,4.05
2022-10-19T00:56:35.646Z,3.40
2022-10-19T00:59:05.907Z,8.80
2022-10-19T01:01:34.159Z,5.93
2022-10-19T01:04:01.972Z,4.50
2022-10-19T01:06:32.231Z,7.60
2022-10-19T01:08:58.948Z,6.82
2022-10-19T01:11:54.998Z,4.40
2022-10-19T01:14:21.747Z,6.40
2022-10-19T01:16:56.604Z,5.55
2022-10-19T01:20:00.226Z,3.15
2022-10-19T01:25:33.660Z,11.85
2022-10-19T01:28:00.378Z,9.38
2022-10-19T01:30:50.908Z,5.97
2022-10-19T01:33:43.359Z,8.68
2022-10-19T01:36:37.511Z,10.93
2022-10-19T01:39:30.399Z,8.90
2022-10-19T01:42:02.974Z,11.63
2022-10-19T01:44:40.857Z,6.57
2022-10-19T01:47:15.904Z,9.77
2022-10-19T01:49:49.749Z,8.77
2022-10-19T01:52:20.880Z,5.88
2022-10-19T01:54:54.062Z,6.30
2022-10-19T01:57:28.372Z,6.15
2022-10-19T01:59:57.476Z,10.32
2022-10-19T02:02:27.143Z,9.40
2022-10-19T02:04:57.586Z,11.07
2022-10-19T02:07:25.487Z,15.38
2022-10-19T02:09:52.291Z,8.52
2022-10-19T02:12:20.294Z,4.88
2022-10-19T02:14:52.309Z,9.27
2022-10-19T02:17:27.503Z,3.85
2022-10-19T02:19:55.390Z,6.97
2022-10-19T02:22:22.379Z,8.48
2022-10-19T02:24:49.155Z,4.72
2022-10-19T02:27:16.450Z,8.75
2022-10-19T02:29:43.512Z,8.27
2022-10-19T02:32:11.348Z,10.05
2022-10-19T02:34:39.598Z,10.40
2022-10-19T02:37:07.312Z,5.43
2022-10-19T02:39:34.343Z,9.05
2022-10-19T02:42:07.203Z,7.82
2022-10-19T02:47:10.856Z,5.35
2022-10-19T02:49:38.989Z,6.40
2022-10-19T02:52:08.692Z,7.20
2022-10-19T02:54:36.228Z,6.03
2022-10-19T02:57:09.978Z,11.27
2022-10-19T02:59:36.706Z,7.55
2022-10-19T03:02:03.457Z,11.52
2022-10-19T03:04:30.203Z,7.25
2022-10-19T03:06:56.966Z,9.65
2022-10-19T03:09:23.782Z,6.93
2022-10-19T03:11:50.496Z,7.97
2022-10-19T03:14:17.222Z,5.65
2022-10-19T03:16:44.026Z,6.00
2022-10-19T03:19:10.773Z,6.50
2022-10-19T03:21:37.624Z,9.40
2022-10-19T03:24:04.599Z,11.23
2022-10-19T03:26:31.365Z,6.43
2022-10-19T03:28:58.134Z,14.35
2022-10-19T03:31:25.878Z,9.10
2022-10-19T03:33:52.930Z,5.80
2022-10-19T03:36:23.015Z,7.00
2022-10-19T03:38:52.062Z,10.27
2022-10-19T03:41:20.102Z,8.68
2022-10-19T03:43:47.208Z,6.85
2022-10-19T03:46:14.123Z,4.65
2022-10-19T03:48:40.891Z,9.15
2022-10-19T03:51:10.597Z,18.05
2022-10-19T03:53:37.693Z,8.90
2022-10-19T03:56:13.125Z,14.45
2022-10-19T03:58:41.403Z,5.55
2022-10-19T04:01:11.698Z,9.30
2022-10-19T04:03:39.010Z,10.80
2022-10-19T04:06:10.591Z,6.57
2022-10-19T04:08:37.381Z,7.88
2022-10-19T04:11:08.035Z,10.27
2022-10-19T04:13:39.464Z,13.98
2022-10-19T04:16:06.629Z,5.82
2022-10-19T04:18:33.822Z,10.00
2022-10-19T04:21:05.412Z,10.20
2022-10-19T04:23:36.310Z,10.43
2022-10-19T04:26:07.709Z,11.18
2022-10-19T04:28:35.119Z,11.30
2022-10-19T04:31:03.685Z,12.68
2022-10-19T04:33:30.507Z,9.82
2022-10-19T04:36:05.461Z,9.02
2022-10-19T04:38:32.931Z,9.50
2022-10-19T04:41:11.399Z,12.38
2022-10-19T04:43:38.310Z,6.32
2022-10-19T04:46:10.877Z,7.35
2022-10-19T04:48:39.048Z,12.52
2022-10-19T04:51:06.816Z,11.85
2022-10-19T04:53:34.768Z,8.82
2022-10-19T04:56:06.166Z,7.53
2022-10-19T04:58:32.903Z,6.38
2022-10-19T05:00:59.829Z,9.70
2022-10-19T05:03:26.594Z,11.43
2022-10-19T05:05:53.385Z,5.85
2022-10-19T05:08:20.091Z,9.55
2022-10-19T05:10:47.775Z,11.55
2022-10-19T05:13:14.933Z,11.45
2022-10-19T05:15:41.744Z,8.85
2022-10-19T05:18:08.475Z,13.55
2022-10-19T05:20:35.221Z,12.57
2022-10-19T05:23:06.225Z,7.45
2022-10-19T05:25:34.248Z,6.85
2022-10-19T05:28:01.014Z,9.40
2022-10-19T05:30:27.785Z,11.73
2022-10-19T05:32:54.527Z,8.15
2022-10-19T05:35:22.664Z,10.63
2022-10-19T05:37:54.578Z,8.48
2022-10-19T05:40:21.492Z,11.63
2022-10-19T05:42:48.202Z,12.18
2022-10-19T05:45:15.016Z,12.68
2022-10-19T05:47:41.766Z,13.75
2022-10-19T05:50:08.780Z,10.27
2022-10-19T05:52:35.502Z,8.13
2022-10-19T05:55:02.269Z,7.53
2022-10-19T05:57:29.021Z,13.50
2022-10-19T05:59:58.545Z,11.25
2022-10-19T06:02:25.304Z,9.07
2022-10-19T06:04:52.145Z,9.18
2022-10-19T06:07:18.900Z,13.30
2022-10-19T06:09:46.269Z,8.95
2022-10-19T06:12:14.841Z,12.80
2022-10-19T06:14:43.250Z,11.15
2022-10-19T06:17:10.916Z,11.02
2022-10-19T06:19:37.889Z,8.77
2022-10-19T06:22:04.687Z,12.18
2022-10-19T06:24:31.721Z,11.00
2022-10-19T06:27:09.894Z,14.18
2022-10-19T06:29:36.650Z,19.05
2022-10-19T06:32:03.483Z,11.10
2022-10-19T06:34:30.388Z,9.45
2022-10-19T06:37:03.762Z,10.68
2022-10-19T06:39:30.615Z,9.15
2022-10-19T06:41:57.364Z,10.75
2022-10-19T06:44:24.095Z,12.43
2022-10-19T06:46:50.805Z,12.93
2022-10-19T06:49:17.778Z,13.20
2022-10-19T06:51:44.605Z,13.68
2022-10-19T06:54:11.803Z,12.75
2022-10-19T06:56:39.080Z,12.35
2022-10-19T06:59:06.086Z,12.18
2022-10-19T07:01:32.962Z,15.45
2022-10-19T07:03:59.759Z,16.63
2022-10-19T07:06:28.254Z,14.95
2022-10-19T07:08:55.018Z,14.15
2022-10-19T07:11:22.789Z,15.13
2022-10-19T07:13:50.228Z,12.55
2022-10-19T07:16:21.262Z,19.40
2022-10-19T07:18:50.109Z,16.80
2022-10-19T07:21:17.721Z,15.38
2022-10-19T07:23:46.228Z,17.52
2022-10-19T07:26:18.950Z,14.98
2022-10-19T07:28:47.763Z,14.07
2022-10-19T07:31:23.439Z,11.00
2022-10-19T07:33:57.932Z,9.77
2022-10-19T07:36:25.832Z,14.23
2022-10-19T07:38:52.765Z,9.70
2022-10-19T07:41:22.068Z,14.15
2022-10-19T07:43:49.749Z,10.93
2022-10-19T07:46:19.604Z,16.92
2022-10-19T07:48:47.032Z,12.20
2022-10-19T07:51:16.274Z,14.77
2022-10-19T07:53:43.875Z,9.93
2022-10-19T07:56:15.560Z,11.07
2022-10-19T07:58:42.975Z,10.15
2022-10-19T08:01:15.547Z,11.35
2022-10-19T08:04:42.753Z,11.10
2022-10-19T08:06:29.515Z,14.55
2022-10-19T08:08:56.509Z,12.20
2022-10-19T08:11:24.814Z,18.58
2022-10-19T08:13:52.545Z,14.15
2022-10-19T08:16:41.547Z,15.27
2022-10-19T08:19:10.611Z,14.30
2022-10-19T08:21:38.981Z,12.93
2022-10-19T08:24:06.700Z,15.05
2022-10-19T08:26:35.151Z,26.23
2022-10-19T08:29:03.456Z,8.80
2022-10-19T08:31:30.605Z,15.38
2022-10-19T08:33:57.820Z,11.52
2022-10-19T08:36:26.200Z,14.85
2022-10-19T08:38:52.959Z,13.98
2022-10-19T08:41:33.089Z,14.70
2022-10-19T08:44:13.718Z,16.35
2022-10-19T08:46:43.301Z,16.80
2022-10-19T08:49:16.056Z,15.45
2022-10-19T08:54:16.842Z,14.70
2022-10-19T08:57:18.900Z,15.48
2022-10-19T09:00:03.973Z,18.80
2022-10-19T09:02:39.784Z,12.13
2022-10-19T09:05:41.379Z,18.83
2022-10-19T09:08:15.307Z,16.27
2022-10-19T09:10:49.130Z,17.42
2022-10-19T09:14:03.710Z,13.00
2022-10-19T09:16:27.793Z,17.42
2022-10-19T09:21:48.821Z,13.30
2022-10-19T09:24:33.124Z,14.48
2022-10-19T09:27:22.705Z,14.05
2022-10-19T09:30:02.733Z,11.27
2022-10-19T09:32:36.587Z,13.27
2022-10-19T09:35:14.066Z,14.77
2022-10-19T09:37:45.220Z,14.80
2022-10-19T09:40:18.865Z,17.20
2022-10-19T09:42:45.734Z,13.15
2022-10-19T09:45:39.713Z,12.23
2022-10-19T09:48:37.504Z,10.90
2022-10-19T09:51:12.424Z,17.10
2022-10-19T09:53:54.522Z,14.18
2022-10-19T09:56:26.936Z,6.93
2022-10-19T09:58:59.917Z,9.88
2022-10-19T10:01:42.996Z,15.82
2022-10-19T10:04:15.189Z,18.77
2022-10-19T10:06:44.402Z,17.02
2022-10-19T10:09:27.998Z,13.52
2022-10-19T10:11:59.338Z,15.27
2022-10-19T10:14:30.554Z,12.88
2022-10-19T10:17:16.372Z,12.15
2022-10-19T10:20:11.188Z,14.40
2022-10-19T10:22:38.072Z,18.42
2022-10-19T10:25:16.957Z,13.93
2022-10-19T10:27:55.165Z,15.60
2022-10-19T10:30:21.940Z,14.65
2022-10-19T10:32:53.199Z,13.93
2022-10-19T10:35:25.304Z,9.45
2022-10-19T10:37:53.093Z,13.68
2022-10-19T10:40:31.239Z,14.48
2022-10-19T10:43:18.365Z,13.65
2022-10-19T10:45:49.144Z,15.68
2022-10-19T10:48:28.733Z,12.77
2022-10-19T10:50:57.397Z,18.23
2022-10-19T10:53:35.915Z,10.88
2022-10-19T10:56:04.951Z,12.98
2022-10-19T10:59:26.432Z,17.63
2022-10-19T11:02:17.588Z,11.65
2022-10-19T11:04:52.417Z,13.90
2022-10-19T11:07:31.273Z,12.23
2022-10-19T11:10:02.868Z,16.45
2022-10-19T11:12:37.748Z,15.52
2022-10-19T11:15:13.570Z,14.45
2022-10-19T11:17:57.240Z,18.70
2022-10-19T11:20:27.924Z,14.85
2022-10-19T11:23:00.827Z,20.25
2022-10-19T11:25:44.494Z,15.80
2022-10-19T11:28:42.406Z,11.48
2022-10-19T11:31:35.542Z,14.15
2022-10-19T11:34:37.205Z,12.63
2022-10-19T11:37:11.286Z,15.27
2022-10-19T11:39:47.205Z,10.65
2022-10-19T11:42:31.707Z,20.02
2022-10-19T11:45:25.774Z,17.13
2022-10-19T11:48:14.385Z,13.93
2022-10-19T11:50:54.358Z,16.15
2022-10-19T11:53:49.226Z,11.20
2022-10-19T11:56:39.200Z,13.18
2022-10-19T11:59:45.473Z,16.77
2022-10-19T12:02:48.073Z,14.95
2022-10-19T12:05:28.110Z,9.88
2022-10-19T12:08:13.365Z,12.00
2022-10-19T12:10:48.227Z,13.63
2022-10-19T12:13:22.454Z,14.77
2022-10-19T12:15:55.581Z,16.33
2022-10-19T12:18:58.403Z,17.17
2022-10-19T12:21:38.368Z,12.65
2022-10-19T12:24:16.400Z,17.73
2022-10-19T12:26:45.654Z,21.88
2022-10-19T12:29:21.566Z,12.30
2022-10-19T12:31:50.326Z,16.20
2022-10-19T12:34:36.132Z,17.58
2022-10-19T12:37:26.510Z,16.67
2022-10-19T12:40:24.677Z,20.35
2022-10-19T12:43:14.389Z,16.63
2022-10-19T12:46:10.229Z,14.15
2022-10-19T12:48:39.422Z,13.50
2022-10-19T12:51:12.118Z,16.45
2022-10-19T12:56:20.950Z,14.73
2022-10-19T12:58:59.917Z,16.13
2022-10-19T13:01:36.055Z,13.93
2022-10-19T13:04:08.030Z,15.05
2022-10-19T13:06:38.645Z,9.65
2022-10-19T13:09:08.429Z,20.27
2022-10-19T13:11:36.252Z,7.20
2022-10-19T13:14:06.429Z,14.75
2022-10-19T13:16:40.418Z,12.80
2022-10-19T13:19:13.301Z,14.30
2022-10-19T13:21:59.780Z,12.05
2022-10-19T13:24:26.614Z,10.82
2022-10-19T13:27:08.487Z,15.38
2022-10-19T13:29:38.993Z,8.07
2022-10-19T13:32:37.963Z,13.18
2022-10-19T13:35:31.766Z,11.38
2022-10-19T13:38:16.788Z,16.15
2022-10-19T13:40:49.782Z,13.00
2022-10-19T13:43:38.867Z,11.35
2022-10-19T13:46:11.524Z,13.10
2022-10-19T13:48:57.296Z,9.80
2022-10-19T13:51:42.201Z,13.05
2022-10-19T13:54:20.979Z,11.80
2022-10-19T13:56:50.685Z,13.95
2022-10-19T13:59:36.228Z,12.63
2022-10-19T14:02:31.332Z,15.30
2022-10-19T14:05:10.796Z,11.45
2022-10-19T14:08:03.160Z,12.85
2022-10-19T14:10:32.796Z,12.15
2022-10-19T14:13:07.047Z,14.40
2022-10-19T14:15:35.699Z,14.57
2022-10-19T14:18:05.809Z,9.48
2022-10-19T14:20:39.282Z,10.00
2022-10-19T14:23:20.454Z,10.40
2022-10-19T14:26:03.580Z,13.05
2022-10-19T14:28:31.888Z,14.40
2022-10-19T14:31:11.468Z,7.55
2022-10-19T14:33:41.203Z,15.73
2022-10-19T14:36:14.695Z,12.15
2022-10-19T14:38:46.660Z,17.98
2022-10-19T14:41:37.492Z,13.98
2022-10-19T14:44:35.638Z,13.60
2022-10-19T14:47:24.495Z,12.88
2022-10-19T14:49:51.556Z,16.40
2022-10-19T14:52:39.029Z,13.68
2022-10-19T14:55:16.905Z,14.38
2022-10-19T14:57:47.770Z,15.10
2022-10-19T15:00:19.493Z,10.93
2022-10-19T15:02:54.744Z,13.45
2022-10-19T15:05:26.172Z,15.25
2022-10-19T15:07:55.844Z,11.95
2022-10-19T15:10:32.323Z,15.15
2022-10-19T15:13:05.026Z,14.48
2022-10-19T15:15:34.550Z,13.75
2022-10-19T15:18:01.385Z,16.17
2022-10-19T15:20:28.265Z,12.13
2022-10-19T15:22:56.739Z,11.93
2022-10-19T15:25:25.333Z,16.65
2022-10-19T15:27:53.874Z,10.68
2022-10-19T15:30:27.589Z,19.80
2022-10-19T15:33:15.396Z,11.85
2022-10-19T15:35:44.716Z,11.82
2022-10-19T15:38:15.038Z,16.92
2022-10-19T15:40:43.980Z,13.07
2022-10-19T15:43:35.621Z,15.77
2022-10-19T15:46:22.233Z,13.98
2022-10-19T15:48:55.527Z,12.50
2022-10-19T15:51:25.194Z,8.25
2022-10-19T15:53:53.674Z,13.82
2022-10-19T15:56:22.231Z,14.18
2022-10-19T15:58:52.819Z,13.18
2022-10-19T16:01:26.486Z,11.70
2022-10-19T16:03:58.727Z,20.13
2022-10-19T16:06:28.546Z,14.20
2022-10-19T16:08:55.608Z,11.40
2022-10-19T16:11:23.373Z,13.48
2022-10-19T16:13:50.363Z,12.75
2022-10-19T16:16:30.002Z,14.85
2022-10-19T16:18:57.486Z,10.57
2022-10-19T16:21:32.207Z,15.43
2022-10-19T16:23:59.565Z,16.63
2022-10-19T16:26:26.819Z,8.90
2022-10-19T16:28:56.637Z,14.32
2022-10-19T16:31:24.093Z,15.27
2022-10-19T16:33:51.445Z,18.77
2022-10-19T16:36:20.425Z,14.68
2022-10-19T16:38:47.880Z,16.33
2022-10-19T16:41:15.310Z,17.55
2022-10-19T16:43:42.288Z,12.77
2022-10-19T16:46:09.376Z,18.17
2022-10-19T16:48:37.148Z,17.70
2022-10-19T16:51:15.470Z,18.73
2022-10-19T16:53:42.303Z,11.02
2022-10-19T16:56:12.681Z,13.23
2022-10-19T16:58:42.081Z,14.05
2022-10-19T17:01:19.083Z,14.93
2022-10-19T17:03:47.856Z,15.85
2022-10-19T17:06:16.189Z,14.02
2022-10-19T17:09:23.270Z,17.58
2022-10-19T17:11:33.183Z,17.50
2022-10-19T17:14:03.187Z,13.20
2022-10-19T17:16:32.308Z,15.00
2022-10-19T17:19:00.444Z,14.13
2022-10-19T17:21:32.906Z,17.27
2022-10-19T17:24:01.666Z,20.23
2022-10-19T17:26:31.153Z,11.48
2022-10-19T17:28:59.192Z,18.45
2022-10-19T17:31:26.880Z,10.38
2022-10-19T17:33:54.193Z,16.75
2022-10-19T17:36:25.491Z,11.73
2022-10-19T17:38:58.315Z,14.63
2022-10-19T17:43:52.988Z,19.38
2022-10-19T17:46:28.279Z,12.50
2022-10-19T17:48:56.361Z,20.02
2022-10-19T17:51:27.531Z,15.93
2022-10-19T17:53:56.735Z,16.30
2022-10-19T17:56:23.925Z,13.98
2022-10-19T17:58:50.952Z,20.00
2022-10-19T18:01:21.372Z,15.23
2022-10-19T18:03:49.385Z,19.83
2022-10-19T18:06:20.869Z,19.20
2022-10-19T18:08:51.493Z,12.82
2022-10-19T18:14:16.660Z,16.80
2022-10-19T18:16:45.971Z,21.40
2022-10-19T18:19:15.195Z,22.77
2022-10-19T18:21:43.898Z,18.00
2022-10-19T18:24:19.548Z,16.02
2022-10-19T18:26:47.220Z,16.10
2022-10-19T18:29:18.027Z,16.92
2022-10-19T18:31:49.249Z,15.93
2022-10-19T18:34:16.289Z,16.45
2022-10-19T18:36:43.700Z,21.20
2022-10-19T18:39:11.995Z,18.67
2022-10-19T18:41:39.138Z,17.58
2022-10-19T18:44:07.076Z,18.98
2022-10-19T18:46:36.337Z,17.40
2022-10-19T18:49:06.904Z,18.38
2022-10-19T18:51:33.925Z,16.65
2022-10-19T18:54:00.719Z,18.77
2022-10-19T18:56:29.525Z,19.40
2022-10-19T18:58:57.470Z,17.85
2022-10-19T19:01:27.010Z,20.10
2022-10-19T19:03:56.313Z,19.63
2022-10-19T19:06:26.263Z,19.13
2022-10-19T19:09:01.202Z,24.13
2022-10-19T19:11:36.029Z,23.13
2022-10-19T19:14:22.044Z,22.92
2022-10-19T19:16:49.156Z,22.70
2022-10-19T19:19:18.190Z,22.65
2022-10-19T19:21:45.907Z,23.60
2022-10-19T19:24:18.054Z,19.30
2022-10-19T19:26:54.029Z,20.00
2022-10-19T19:29:22.300Z,26.10
2022-10-19T19:31:49.941Z,24.88
2022-10-19T19:34:17.352Z,22.70
2022-10-19T19:36:48.961Z,16.48
2022-10-19T19:39:18.920Z,25.17
2022-10-19T19:41:46.279Z,23.00
2022-10-19T19:44:13.049Z,21.17
2022-10-19T19:46:40.117Z,32.53
2022-10-19T19:49:07.334Z,24.50
2022-10-19T19:51:35.639Z,19.08
2022-10-19T19:54:03.631Z,20.13
2022-10-19T19:56:30.771Z,20.80
2022-10-19T19:59:00.015Z,18.70
2022-10-19T20:01:27.193Z,25.80
2022-10-19T20:03:54.475Z,24.20
2022-10-19T20:06:25.025Z,18.92
2022-10-19T20:08:53.334Z,23.08
2022-10-19T20:11:20.141Z,20.50
2022-10-19T20:13:47.123Z,28.73
2022-10-19T20:16:16.801Z,23.67
2022-10-19T20:18:49.886Z,26.35
2022-10-19T20:21:18.094Z,24.80
2022-10-19T20:23:46.837Z,22.80
2022-10-19T20:26:22.692Z,18.55
2022-10-19T20:28:50.176Z,24.33
2022-10-19T20:31:17.307Z,24.05
2022-10-19T20:33:45.120Z,22.30
2022-10-19T20:36:22.271Z,17.98
2022-10-19T20:38:56.932Z,19.30
2022-10-19T20:41:26.649Z,21.30
2022-10-19T20:43:54.432Z,20.45
2022-10-19T20:46:23.516Z,20.90
2022-10-19T20:48:51.409Z,24.52
2022-10-19T20:51:25.902Z,23.42
2022-10-19T20:53:57.623Z,25.17
2022-10-19T20:56:27.972Z,18.17
2022-10-19T20:59:00.246Z,20.98
2022-10-19T21:01:29.469Z,28.17
2022-10-19T21:03:58.441Z,23.80
2022-10-19T21:06:27.132Z,19.15
2022-10-19T21:08:54.227Z,21.55
2022-10-19T21:11:26.607Z,18.55
2022-10-19T21:13:55.286Z,22.13
2022-10-19T21:16:23.347Z,28.17
2022-10-19T21:18:50.925Z,19.10
2022-10-19T21:21:23.712Z,24.77
2022-10-19T21:26:18.940Z,16.52
2022-10-19T21:28:53.421Z,25.90
2022-10-19T21:31:24.329Z,26.48
2022-10-19T21:33:52.284Z,18.52
2022-10-19T21:36:21.327Z,18.83
2022-10-19T21:38:48.978Z,19.52
2022-10-19T21:41:22.253Z,18.33
2022-10-19T21:43:52.637Z,22.05
2022-10-19T21:46:21.346Z,20.45
2022-10-19T21:48:48.644Z,27.58
2022-10-19T21:51:48.474Z,19.02
2022-10-19T21:54:18.687Z,20.25
2022-10-19T21:56:46.529Z,25.58
2022-10-19T21:59:13.457Z,27.73
2022-10-19T22:01:41.498Z,22.67
2022-10-19T22:04:16.840Z,24.75
2022-10-19T22:06:44.024Z,21.23
2022-10-19T22:09:15.280Z,19.90
2022-10-19T22:11:42.076Z,23.50
2022-10-19T22:14:11.664Z,20.52
2022-10-19T22:16:40.119Z,28.85
2022-10-19T22:19:06.894Z,24.27
2022-10-19T22:21:35.430Z,25.15
2022-10-19T22:24:07.230Z,27.48
2022-10-19T22:26:40.371Z,24.73
2022-10-19T22:29:07.966Z,23.38
2022-10-19T22:31:38.351Z,24.67
2022-10-19T22:34:09.517Z,22.58
2022-10-19T22:36:36.828Z,23.90
2022-10-19T22:39:04.876Z,22.05
2022-10-19T22:42:21.242Z,24.35
2022-10-19T22:44:47.953Z,20.15
2022-10-19T22:47:14.756Z,22.55
2022-10-19T22:49:41.565Z,20.27
2022-10-19T22:52:08.417Z,19.60
2022-10-19T22:54:35.283Z,30.50
2022-10-19T22:57:02.366Z,22.15
2022-10-19T22:59:29.091Z,20.35
2022-10-19T23:01:55.873Z,23.95
2022-10-19T23:04:22.627Z,22.55
2022-10-19T23:06:49.373Z,21.65
2022-10-19T23:09:16.079Z,21.23
2022-10-19T23:11:42.779Z,20.67
2022-10-19T23:14:09.697Z,28.48
2022-10-19T23:16:36.506Z,19.30
2022-10-19T23:19:03.256Z,22.50
2022-10-19T23:21:30.083Z,30.98
2022-10-19T23:23:56.780Z,28.88
2022-10-19T23:26:25.106Z,27.90
2022-10-19T23:29:19.975Z,26.33
2022-10-19T23:31:46.722Z,20.52
2022-10-19T23:34:13.679Z,22.08
2022-10-19T23:36:40.579Z,23.40
2022-10-19T23:39:07.884Z,24.85
2022-10-19T23:41:34.676Z,27.42
2022-10-19T23:44:01.412Z,31.70
2022-10-19T23:46:28.295Z,28.90
2022-10-19T23:48:55.110Z,26.95
2022-10-19T23:51:22.128Z,23.30
2022-10-19T23:53:51.141Z,23.05
2022-10-19T23:56:35.882Z,22.17
2022-10-19T23:59:02.967Z,18.50
